Time;durP1;ratioP1;P1;durP2;ratioP2;P2;SDS_P1;SDS_P2;PMS_P1;PMS_P2;Temp;Humidity;BMP_temperature;BMP_pressure;BME280_temperature;BME280_humidity;BME280_pressure;Samples;Min_cycle;Max_cycle;Signal;HPM_P1;HPM_P2
2022/03/26 00:00:44;;;;;;;;;;;;;;;16.91;43.74;103365.19;6314130;22;20235;-81
2022/03/26 00:03:09;;;;;;;;;;;;;;;16.91;43.84;103362.59;6313445;22;19973;-81
2022/03/26 00:05:35;;;;;;;;;;;;;;;16.92;43.67;103364.34;6313212;22;19914;-81
2022/03/26 00:08:00;;;;;;;;;;;;;;;16.94;43.82;103363.59;6288488;22;19968;-81
2022/03/26 00:10:25;;;;;;;;;;;;;;;16.95;43.72;103364.47;6314818;22;19910;-81
2022/03/26 00:12:52;;;;;;;;;;;;;;;16.90;43.79;103361.72;6288513;22;19986;-81
2022/03/26 00:15:18;;;;;;;;;;;;;;;16.90;43.88;103356.50;6312414;22;20350;-81
2022/03/26 00:17:43;;;;;;;;;;;;;;;16.91;43.94;103362.59;6313692;22;19906;-80
2022/03/26 00:20:09;;;;;;;;;;;;;;;16.91;43.73;103360.88;6312136;22;19910;-81
2022/03/26 00:22:34;;;;;;;;;;;;;;;16.90;43.99;103360.81;6287723;22;19943;-81
2022/03/26 00:25:02;;;;;;;;;;;;;;;16.94;44.05;103363.59;6312231;22;19915;-81
2022/03/26 00:27:28;;;;;;;;;;;;;;;16.91;43.86;103360.00;6285999;22;19932;-81
2022/03/26 00:29:53;;;;;;;;;;;;;;;16.90;43.85;103361.72;6314236;22;19906;-81
2022/03/26 00:32:19;;;;;;;;;;;;;;;16.91;43.86;103363.47;6315187;22;20268;-81
2022/03/26 00:34:44;;;;;;;;;;;;;;;16.92;43.83;103369.56;6318934;22;19911;-81
2022/03/26 00:37:09;;;;;;;;;;;;;;;16.88;44.03;103360.78;6318072;22;20278;-81
2022/03/26 00:39:36;;;;;;;;;;;;;;;16.89;44.04;103367.75;6316620;22;19918;-81
2022/03/26 00:42:04;;;;;;;;;;;;;;;16.92;43.93;103378.25;6290429;22;19914;-81
2022/03/26 00:44:29;;;;;;;;;;;;;;;16.90;43.81;103374.72;6290585;22;19933;-81
2022/03/26 00:46:54;;;;;;;;;;;;;;;16.86;43.87;103372.84;6317747;22;19911;-81
2022/03/26 00:49:20;;;;;;;;;;;;;;;16.82;44.06;103368.38;6316741;22;19954;-81
2022/03/26 00:51:45;;;;;;;;;;;;;;;16.84;43.98;103372.78;6315744;22;19918;-81
2022/03/26 00:54:11;;;;;;;;;;;;;;;16.87;43.83;103366.78;6316502;22;19911;-81
2022/03/26 00:56:37;;;;;;;;;;;;;;;16.84;43.89;103375.38;6316542;22;19914;-81
2022/03/26 00:59:03;;;;;;;;;;;;;;;16.86;43.70;103367.66;6316332;22;19970;-81
2022/03/26 01:01:28;;;;;;;;;;;;;;;16.84;44.11;103370.19;6314105;22;19992;-81
2022/03/26 01:03:53;;;;;;;;;;;;;;;16.85;43.97;103374.56;6316574;22;19925;-81
2022/03/26 01:06:19;;;;;;;;;;;;;;;16.82;43.99;103371.84;6316391;22;19911;-81
2022/03/26 01:08:44;;;;;;;;;;;;;;;16.84;44.02;103378.00;6320751;22;19907;-81
2022/03/26 01:11:09;;;;;;;;;;;;;;;16.88;43.99;103373.78;6296324;22;19934;-82
2022/03/26 01:13:36;;;;;;;;;;;;;;;16.90;44.00;103376.41;6297644;22;19907;-81
2022/03/26 01:16:02;;;;;;;;;;;;;;;16.92;43.98;103362.66;6324160;22;20033;-81
2022/03/26 01:18:28;;;;;;;;;;;;;;;16.98;44.45;103362.84;6324390;22;19911;-82
2022/03/26 01:20:56;;;;;;;;;;;;;;;17.04;44.12;103362.16;6322626;22;19983;-81
2022/03/26 01:23:21;;;;;;;;;;;;;;;17.08;44.00;103363.16;6318321;22;19982;-81
2022/03/26 01:25:47;;;;;;;;;;;;;;;17.06;44.09;103356.16;6322197;22;19933;-81
2022/03/26 01:28:12;;;;;;;;;;;;;;;17.02;44.36;103356.91;6324035;22;19918;-81
2022/03/26 01:30:38;;;;;;;;;;;;;;;17.04;44.47;103354.34;6292729;22;19907;-81
2022/03/26 01:33:03;;;;;;;;;;;;;;;17.05;44.55;103358.75;6316508;22;20320;-81
2022/03/26 01:35:28;;;;;;;;;;;;;;;17.08;44.32;103356.22;6320017;22;19911;-81
2022/03/26 01:37:53;;;;;;;;;;;;;;;17.10;44.40;103357.16;6318761;22;19911;-81
2022/03/26 01:40:19;;;;;;;;;;;;;;;17.11;44.22;103353.72;6318570;22;19911;-81
2022/03/26 01:42:44;;;;;;;;;;;;;;;17.13;44.47;103353.78;6289438;22;19907;-81
2022/03/26 01:45:10;;;;;;;;;;;;;;;17.12;44.32;103349.41;6319969;22;20287;-82
2022/03/26 01:47:35;;;;;;;;;;;;;;;17.11;44.57;103358.03;6323843;22;19922;-81
2022/03/26 01:50:01;;;;;;;;;;;;;;;17.15;44.30;103352.97;6320913;22;19911;-81
2022/03/26 01:52:26;;;;;;;;;;;;;;;17.14;44.33;103352.97;6319940;22;19907;-81
2022/03/26 01:54:51;;;;;;;;;;;;;;;17.17;44.43;103355.66;6319954;22;19911;-81
2022/03/26 01:57:16;;;;;;;;;;;;;;;17.14;44.31;103355.56;6319046;22;19911;-81
2022/03/26 01:59:42;;;;;;;;;;;;;;;17.10;44.29;103358.91;6317938;22;19906;-81
2022/03/26 02:02:09;;;;;;;;;;;;;;;17.05;44.63;103353.53;6318855;22;19926;-81
2022/03/26 02:04:34;;;;;;;;;;;;;;;17.01;44.29;103355.16;6294051;22;19960;-81
2022/03/26 02:07:01;;;;;;;;;;;;;;;16.99;44.70;103356.81;6301071;22;19915;-82
2022/03/26 02:09:26;;;;;;;;;;;;;;;17.00;44.56;103355.09;6300339;22;19934;-82
2022/03/26 02:11:51;;;;;;;;;;;;;;;17.01;44.59;103347.34;6327653;22;19911;-82
2022/03/26 02:14:17;;;;;;;;;;;;;;;17.03;44.66;103352.59;6323100;22;19918;-82
2022/03/26 02:16:43;;;;;;;;;;;;;;;17.02;44.75;103348.22;6324527;22;19907;-81
2022/03/26 02:19:09;;;;;;;;;;;;;;;17.01;44.55;103352.53;6325437;22;19922;-82
2022/03/26 02:21:35;;;;;;;;;;;;;;;17.02;44.53;103349.09;6299354;22;19907;-82
2022/03/26 02:24:02;;;;;;;;;;;;;;;17.01;44.57;103349.06;6325151;22;19929;-81
2022/03/26 02:26:30;;;;;;;;;;;;;;;16.99;44.88;103346.41;6294021;22;20188;-82
2022/03/26 02:28:56;;;;;;;;;;;;;;;17.01;44.57;103351.66;6297087;22;19942;-81
2022/03/26 02:31:22;;;;;;;;;;;;;;;17.00;44.55;103342.97;6301069;22;19914;-82
2022/03/26 02:33:48;;;;;;;;;;;;;;;17.02;44.80;103349.09;6306612;22;19907;-81
2022/03/26 02:36:13;;;;;;;;;;;;;;;17.01;44.82;103342.13;6334517;22;19911;-81
2022/03/26 02:38:39;;;;;;;;;;;;;;;17.04;44.51;103338.75;6332751;22;19949;-82
2022/03/26 02:41:05;;;;;;;;;;;;;;;17.04;44.61;103338.75;6325238;22;19911;-81
2022/03/26 02:43:30;;;;;;;;;;;;;;;17.03;44.63;103337.00;6298251;22;19911;-81
2022/03/26 02:45:56;;;;;;;;;;;;;;;17.05;44.56;103336.22;6297360;22;19915;-82
2022/03/26 02:48:21;;;;;;;;;;;;;;;17.09;44.70;103336.28;6296437;22;19907;-81
2022/03/26 02:50:47;;;;;;;;;;;;;;;17.06;44.65;103337.97;6296882;22;19914;-81
2022/03/26 02:53:12;;;;;;;;;;;;;;;17.04;44.84;103331.81;6322824;22;19929;-82
2022/03/26 02:55:38;;;;;;;;;;;;;;;17.03;44.71;103337.00;6297150;22;19907;-81
2022/03/26 02:58:04;;;;;;;;;;;;;;;17.01;44.88;103334.34;6296416;22;19907;-81
2022/03/26 03:00:30;;;;;;;;;;;;;;;17.01;44.79;103336.06;6296643;22;19917;-82
2022/03/26 03:02:55;;;;;;;;;;;;;;;17.03;44.88;103335.28;6321928;22;20251;-81
2022/03/26 03:05:21;;;;;;;;;;;;;;;17.00;44.91;103332.56;6321163;22;19911;-81
2022/03/26 03:07:47;;;;;;;;;;;;;;;17.01;44.75;103330.84;6296144;22;19911;-82
2022/03/26 03:10:15;;;;;;;;;;;;;;;17.02;44.78;103336.09;6324985;22;20330;-82
2022/03/26 03:12:41;;;;;;;;;;;;;;;17.01;44.77;103331.72;6299231;22;19906;-82
2022/03/26 03:15:06;;;;;;;;;;;;;;;17.04;44.89;103334.44;6297322;22;19907;-82
2022/03/26 03:17:35;;;;;;;;;;;;;;;17.09;44.61;103329.38;6324949;22;19933;-82
2022/03/26 03:20:00;;;;;;;;;;;;;;;17.10;44.79;103325.94;6299919;22;19960;-82
2022/03/26 03:22:26;;;;;;;;;;;;;;;17.11;44.70;103334.63;6298550;22;19911;-82
2022/03/26 03:24:51;;;;;;;;;;;;;;;17.11;44.64;103332.91;6299131;22;19911;-82
2022/03/26 03:27:16;;;;;;;;;;;;;;;17.11;44.70;103340.72;6325139;22;19911;-81
2022/03/26 03:29:42;;;;;;;;;;;;;;;17.09;44.74;103333.69;6321348;22;19911;-81
2022/03/26 03:32:07;;;;;;;;;;;;;;;17.09;44.78;103337.16;6321737;22;19907;-81
2022/03/26 03:34:32;;;;;;;;;;;;;;;17.09;44.94;103337.16;6322420;22;20381;-81
2022/03/26 03:36:58;;;;;;;;;;;;;;;17.08;44.91;103339.75;6323834;22;19914;-82
2022/03/26 03:39:23;;;;;;;;;;;;;;;17.06;44.90;103337.97;6323083;22;19958;-81
2022/03/26 03:41:49;;;;;;;;;;;;;;;17.07;44.83;103333.63;6323872;22;20236;-81
2022/03/26 03:44:14;;;;;;;;;;;;;;;17.03;44.80;103337.00;6298893;22;19911;-82
2022/03/26 03:46:39;;;;;;;;;;;;;;;17.00;44.91;103340.34;6324236;22;19941;-81
2022/03/26 03:49:07;;;;;;;;;;;;;;;16.97;45.04;103335.06;6292494;22;19907;-81
2022/03/26 03:51:33;;;;;;;;;;;;;;;17.01;44.87;103343.88;6300256;22;19989;-82
2022/03/26 03:53:58;;;;;;;;;;;;;;;16.98;44.82;103344.63;6305778;22;19907;-82
2022/03/26 03:56:26;;;;;;;;;;;;;;;16.98;45.11;103344.63;6301658;22;19907;-81
2022/03/26 03:58:51;;;;;;;;;;;;;;;16.99;45.09;103340.34;6297666;22;19907;-82
2022/03/26 04:01:17;;;;;;;;;;;;;;;17.02;44.75;103337.81;6328001;22;19914;-82
2022/03/26 04:03:43;;;;;;;;;;;;;;;17.00;45.07;103337.75;6332276;22;19899;-83
2022/03/26 04:06:13;;;;;;;;;;;;;;;17.00;44.77;103339.47;6294278;22;19922;-82
2022/03/26 04:08:40;;;;;;;;;;;;;;;16.98;45.02;103336.81;6324858;22;19911;-81
2022/03/26 04:11:10;;;;;;;;;;;;;;;17.01;44.83;103338.66;6322452;22;19929;-81
2022/03/26 04:13:37;;;;;;;;;;;;;;;17.04;44.81;103342.22;6320082;22;19957;-81
2022/03/26 04:16:04;;;;;;;;;;;;;;;17.03;44.99;103340.47;6323132;22;19907;-81
2022/03/26 04:18:40;;;;;;;;;;;;;;;17.04;44.92;103339.63;6323944;22;19907;-81
2022/03/26 04:21:06;;;;;;;;;;;;;;;17.04;44.81;103344.81;6293255;22;20333;-82
2022/03/26 04:26:36;;;;;;;;;;;;;;;17.01;44.95;103339.53;6325011;22;19918;-82
2022/03/26 04:29:02;;;;;;;;;;;;;;;17.04;44.88;103338.75;6322989;22;19941;-82
2022/03/26 04:31:28;;;;;;;;;;;;;;;17.05;44.98;103344.00;6317479;22;20318;-81
2022/03/26 04:33:53;;;;;;;;;;;;;;;17.03;45.02;103340.47;6320072;22;19915;-81
2022/03/26 04:36:20;;;;;;;;;;;;;;;17.00;45.16;103340.34;6319265;22;19939;-81
2022/03/26 04:38:46;;;;;;;;;;;;;;;17.03;45.09;103340.47;6296616;22;19907;-81
2022/03/26 04:41:13;;;;;;;;;;;;;;;17.01;45.06;103336.94;6294221;22;19911;-81
2022/03/26 04:43:45;;;;;;;;;;;;;;;17.02;45.14;103338.69;6320984;22;20339;-82
2022/03/26 04:46:11;;;;;;;;;;;;;;;17.04;45.09;103336.16;6317372;22;19914;-81
2022/03/26 04:48:36;;;;;;;;;;;;;;;17.06;45.04;103337.09;6317996;22;19942;-82
2022/03/26 04:51:03;;;;;;;;;;;;;;;17.05;45.21;103337.94;6322708;22;19927;-81
2022/03/26 04:53:28;;;;;;;;;;;;;;;17.08;44.99;103334.53;6320164;22;19914;-81
2022/03/26 04:55:55;;;;;;;;;;;;;;;17.13;44.88;103332.97;6320379;22;19906;-81
2022/03/26 04:58:21;;;;;;;;;;;;;;;17.08;45.03;103339.75;6318497;22;19925;-81
2022/03/26 05:00:46;;;;;;;;;;;;;;;17.10;44.75;103331.16;6319722;22;19926;-81
2022/03/26 05:03:12;;;;;;;;;;;;;;;16.97;45.04;103321.19;6320922;22;19915;-81
2022/03/26 05:05:37;;;;;;;;;;;;;;;16.87;45.17;103327.78;6298750;22;19907;-81
2022/03/26 05:08:03;;;;;;;;;;;;;;;16.82;45.29;103326.75;6296709;22;19907;-81
2022/03/26 05:10:30;;;;;;;;;;;;;;;16.80;45.21;103318.03;6324073;22;19937;-81
2022/03/26 05:12:58;;;;;;;;;;;;;;;16.76;45.28;103323.91;6318223;22;20319;-81
2022/03/26 05:15:26;;;;;;;;;;;;;;;16.74;45.26;103333.38;6319592;22;19929;-81
2022/03/26 05:17:53;;;;;;;;;;;;;;;16.72;45.40;103332.44;6291678;22;19926;-81
2022/03/26 05:20:20;;;;;;;;;;;;;;;16.71;45.28;103333.28;6316245;22;19907;-81
2022/03/26 05:22:46;;;;;;;;;;;;;;;16.70;45.24;103328.91;6289000;22;19934;-81
2022/03/26 05:25:12;;;;;;;;;;;;;;;16.69;45.33;103330.63;6289495;22;19913;-81
2022/03/26 05:27:37;;;;;;;;;;;;;;;16.72;45.22;103335.03;6326471;22;19910;-81
2022/03/26 05:30:04;;;;;;;;;;;;;;;16.71;45.22;103328.97;6332420;22;20316;-81
2022/03/26 05:32:30;;;;;;;;;;;;;;;16.68;45.33;103334.06;6333353;22;20240;-81
2022/03/26 05:34:57;;;;;;;;;;;;;;;16.67;45.27;103333.16;6330215;22;19907;-81
2022/03/26 05:37:22;;;;;;;;;;;;;;;16.70;45.23;103334.09;6320980;22;19914;-81
2022/03/26 05:39:47;;;;;;;;;;;;;;;16.70;45.41;103339.31;6319662;22;19911;-81
2022/03/26 05:42:13;;;;;;;;;;;;;;;16.68;45.35;103336.69;6291199;22;19992;-81
2022/03/26 05:44:40;;;;;;;;;;;;;;;16.70;45.38;103339.31;6290709;22;19906;-81
2022/03/26 05:47:07;;;;;;;;;;;;;;;16.70;45.44;103331.50;6288523;22;19911;-81
2022/03/26 05:49:33;;;;;;;;;;;;;;;16.70;45.20;103336.72;6312111;22;19907;-80
2022/03/26 05:51:58;;;;;;;;;;;;;;;16.71;45.32;103339.38;6289653;22;19914;-81
2022/03/26 05:54:24;;;;;;;;;;;;;;;16.74;45.15;103331.66;6289102;22;19990;-81
2022/03/26 05:56:53;;;;;;;;;;;;;;;16.73;45.15;103339.44;6312924;22;19968;-81
2022/03/26 05:59:23;;;;;;;;;;;;;;;16.71;45.22;103338.50;6316557;22;20243;-81
2022/03/26 06:01:50;;;;;;;;;;;;;;;16.71;45.31;103346.28;6320974;22;19906;-81
2022/03/26 06:04:17;;;;;;;;;;;;;;;16.71;45.25;103344.56;6326454;22;19915;-82
2022/03/26 06:06:48;;;;;;;;;;;;;;;16.71;45.25;103348.91;6298215;22;19915;-81
2022/03/26 06:09:13;;;;;;;;;;;;;;;16.74;45.12;103352.47;6323484;22;19911;-81
2022/03/26 06:11:39;;;;;;;;;;;;;;;16.75;45.08;103355.97;6321276;22;19914;-81
2022/03/26 06:14:04;;;;;;;;;;;;;;;16.76;45.10;103357.72;6324995;22;19907;-81
2022/03/26 06:16:30;;;;;;;;;;;;;;;16.79;44.99;103368.25;6318884;22;19917;-82
2022/03/26 06:18:55;;;;;;;;;;;;;;;16.79;45.01;103369.13;6289966;22;19957;-81
2022/03/26 06:21:20;;;;;;;;;;;;;;;16.81;44.99;103379.59;6319167;22;19907;-81
2022/03/26 06:23:46;;;;;;;;;;;;;;;16.83;45.11;103375.31;6318804;22;19918;-81
2022/03/26 06:26:11;;;;;;;;;;;;;;;16.85;45.07;103369.38;6317164;22;19916;-81
2022/03/26 06:28:37;;;;;;;;;;;;;;;16.91;44.88;103370.41;6316863;22;19918;-80
2022/03/26 06:31:02;;;;;;;;;;;;;;;17.00;44.77;103374.19;6316670;22;19986;-82
2022/03/26 06:33:28;;;;;;;;;;;;;;;17.15;44.19;103373.81;6293540;22;19907;-82
2022/03/26 06:35:53;;;;;;;;;;;;;;;17.20;44.08;103369.66;6321089;22;19994;-81
2022/03/26 06:38:18;;;;;;;;;;;;;;;17.31;44.01;103371.69;6317978;22;19907;-82
2022/03/26 06:40:44;;;;;;;;;;;;;;;17.61;43.57;103370.03;6321758;22;19949;-81
2022/03/26 06:43:09;;;;;;;;;;;;;;;17.93;42.77;103371.91;6316321;22;19907;-81
2022/03/26 06:45:54;;;;;;;;;;;;;;;18.15;42.26;103379.47;6330874;22;19921;-82
2022/03/26 06:48:21;;;;;;;;;;;;;;;18.29;42.08;103375.56;6288262;22;19971;-81
2022/03/26 06:53:40;;;;;;;;;;;;;;;18.51;41.59;103381.38;6284010;22;20251;-79
2022/03/26 06:56:06;;;;;;;;;;;;;;;18.76;41.18;103379.41;6316026;22;19899;-81
2022/03/26 06:58:32;;;;;;;;;;;;;;;18.98;40.64;103383.47;6339165;22;19905;-82
2022/03/26 07:03:35;;;;;;;;;;;;;;;19.18;40.27;103379.59;6288463;22;19915;-83
2022/03/26 07:06:01;;;;;;;;;;;;;;;19.24;40.12;103387.59;6324081;22;19915;-82
2022/03/26 07:08:26;;;;;;;;;;;;;;;19.26;40.07;103391.13;6284229;22;19918;-84
2022/03/26 07:10:52;;;;;;;;;;;;;;;19.25;40.02;103389.38;6257070;22;19915;-85
2022/03/26 07:13:17;;;;;;;;;;;;;;;19.28;39.98;103391.16;6257371;22;20373;-86
2022/03/26 07:15:43;;;;;;;;;;;;;;;19.23;40.07;103390.19;6282669;22;19934;-87
2022/03/26 07:18:08;;;;;;;;;;;;;;;19.27;40.08;103389.38;6282699;22;20338;-85
2022/03/26 07:20:34;;;;;;;;;;;;;;;19.27;40.23;103397.22;6261185;22;19911;-85
2022/03/26 07:22:59;;;;;;;;;;;;;;;19.29;40.25;103405.97;6282652;22;19911;-85
2022/03/26 07:25:25;;;;;;;;;;;;;;;19.32;40.09;103404.31;6257111;22;19915;-85
2022/03/26 07:27:50;;;;;;;;;;;;;;;19.38;40.22;103402.69;6257041;22;19950;-86
2022/03/26 07:30:15;;;;;;;;;;;;;;;19.42;40.02;103410.63;6282466;22;19907;-86
2022/03/26 07:32:40;;;;;;;;;;;;;;;19.46;39.79;103412.47;6282041;22;19918;-86
2022/03/26 07:35:06;;;;;;;;;;;;;;;19.47;39.80;103413.38;6256911;22;19910;-87
2022/03/26 07:37:31;;;;;;;;;;;;;;;19.51;39.60;103416.09;6282454;22;19907;-86
2022/03/26 07:39:57;;;;;;;;;;;;;;;19.55;39.38;103421.38;6257043;22;19960;-86
2022/03/26 07:42:22;;;;;;;;;;;;;;;19.53;39.66;103419.63;6309822;22;19913;-87
2022/03/26 07:44:47;;;;;;;;;;;;;;;19.51;39.62;103426.53;6256975;22;19964;-85
2022/03/26 07:47:13;;;;;;;;;;;;;;;19.50;39.60;103427.38;6282238;22;19911;-86
2022/03/26 07:49:38;;;;;;;;;;;;;;;19.53;39.66;103429.16;6257234;22;19933;-86
2022/03/26 07:52:03;;;;;;;;;;;;;;;19.51;39.52;103423.03;6309973;22;19914;-88
2022/03/26 07:54:29;;;;;;;;;;;;;;;19.51;39.56;103425.63;6282923;22;19907;-88
2022/03/26 07:56:54;;;;;;;;;;;;;;;19.32;40.08;103427.81;6257072;22;19976;-86
2022/03/26 07:59:19;;;;;;;;;;;;;;;18.91;41.06;103438.09;6277239;22;19915;-85
2022/03/26 08:28:11;;;;;;;;;;;;;;;19.26;39.96;103451.16;6368277;22;19925;-82
2022/03/26 08:30:36;;;;;;;;;;;;;;;19.17;40.00;103452.69;6337163;22;19906;-81
2022/03/26 08:33:02;;;;;;;;;;;;;;;19.09;40.36;103449.84;6324196;22;19906;-81
2022/03/26 08:35:35;;;;;;;;;;;;;;;19.05;39.86;103455.84;6327253;22;19905;-81
2022/03/26 08:38:01;;;;;;;;;;;;;;;19.03;39.81;103453.22;6310091;22;19909;-80
2022/03/26 08:40:29;;;;;;;;;;;;;;;19.06;39.38;103450.66;6330797;22;19919;-82
2022/03/26 08:42:54;;;;;;;;;;;;;;;18.99;39.75;103463.50;6332329;22;19906;-81
2022/03/26 08:45:19;;;;;;;;;;;;;;;18.90;39.46;103474.56;6325699;22;19978;-81
2022/03/26 08:47:46;;;;;;;;;;;;;;;18.88;39.52;103474.56;6302798;22;19914;-80
2022/03/26 08:50:12;;;;;;;;;;;;;;;18.89;39.35;103471.09;6335147;22;19911;-81
2022/03/26 08:52:37;;;;;;;;;;;;;;;18.91;39.44;103473.75;6327839;22;19907;-83
2022/03/26 08:55:09;;;;;;;;;;;;;;;18.91;39.29;103469.41;6326944;22;19918;-82
2022/03/26 08:57:34;;;;;;;;;;;;;;;18.87;39.60;103470.16;6321745;22;19911;-79
2022/03/26 08:59:59;;;;;;;;;;;;;;;19.00;38.34;103467.88;6350937;22;20235;-80
2022/03/26 09:02:26;;;;;;;;;;;;;;;19.02;39.02;103467.09;6349099;22;19906;-81
2022/03/26 09:04:52;;;;;;;;;;;;;;;18.94;39.21;103473.81;6299626;22;19894;-82
2022/03/26 09:07:17;;;;;;;;;;;;;;;18.90;39.33;103462.44;6347487;22;19911;-81
2022/03/26 09:09:42;;;;;;;;;;;;;;;18.98;38.80;103469.56;6316158;22;19913;-81
2022/03/26 09:12:08;;;;;;;;;;;;;;;18.93;39.17;103468.59;6316103;22;19906;-80
2022/03/26 09:14:35;;;;;;;;;;;;;;;18.95;39.11;103474.72;6316229;22;19938;-80
2022/03/26 09:17:00;;;;;;;;;;;;;;;18.99;39.00;103471.31;6320027;22;19933;-81
2022/03/26 09:19:25;;;;;;;;;;;;;;;18.90;39.00;103472.88;6322439;22;19906;-81
2022/03/26 09:21:52;;;;;;;;;;;;;;;18.91;39.21;103469.41;6321352;22;19913;-81
2022/03/26 09:29:37;;;;;;;;;;;;;;;18.90;39.32;103472.88;6332300;22;19926;-80
2022/03/26 09:32:03;;;;;;;;;;;;;;;18.85;39.50;103481.41;6289798;22;19910;-80
2022/03/26 09:34:29;;;;;;;;;;;;;;;18.83;39.92;103480.47;6342604;22;19906;-80
2022/03/26 09:36:54;;;;;;;;;;;;;;;18.80;39.94;103481.28;6316189;22;19968;-80
2022/03/26 09:39:20;;;;;;;;;;;;;;;18.77;40.00;103480.28;6290130;22;20307;-80
2022/03/26 09:41:45;;;;;;;;;;;;;;;18.75;38.43;103477.66;6290700;22;19914;-80
2022/03/26 09:44:11;;;;;;;;;;;;;;;18.72;39.84;103480.16;6316393;22;19991;-80
2022/03/26 09:46:37;;;;;;;;;;;;;;;18.70;39.81;103485.34;6345052;22;19976;-80
2022/03/26 09:49:03;;;;;;;;;;;;;;;18.73;39.40;103479.31;6318746;22;19907;-80
2022/03/26 09:51:28;;;;;;;;;;;;;;;18.71;40.08;103474.06;6291927;22;20238;-80
2022/03/26 09:53:54;;;;;;;;;;;;;;;18.69;39.78;103472.25;6291316;22;19934;-80
2022/03/26 09:56:20;;;;;;;;;;;;;;;18.69;39.92;103473.13;6318045;22;19985;-80
2022/03/26 09:58:46;;;;;;;;;;;;;;;18.70;39.51;103468.78;6322177;22;19899;-80
2022/03/26 10:01:12;;;;;;;;;;;;;;;18.67;40.17;103466.97;6351698;22;19914;-80
2022/03/26 10:03:40;;;;;;;;;;;;;;;18.65;39.89;103468.66;6323429;22;19907;-78
2022/03/26 10:06:07;;;;;;;;;;;;;;;18.66;40.03;103466.94;6324457;22;19948;-79
2022/03/26 10:08:50;;;;;;;;;;;;;;;18.66;40.21;103467.84;6351009;22;19914;-82
2022/03/26 10:27:18;;;;;;;;;;;;;;;18.66;39.54;103466.94;6370225;22;19929;-83
2022/03/26 10:35:57;;;;;;;;;;;;;;;18.70;40.65;103463.56;6360443;22;19919;-82
2022/03/26 10:38:30;;;;;;;;;;;;;;;18.68;40.16;103460.94;6341936;22;19919;-82
2022/03/26 10:40:59;;;;;;;;;;;;;;;18.66;40.82;103453.88;6341759;22;19898;-83
2022/03/26 10:43:25;;;;;;;;;;;;;;;18.67;40.75;103450.47;6311353;22;19933;-83
2022/03/26 10:51:20;;;;;;;;;;;;;;;18.62;40.35;103439.03;6308985;22;19925;-80
2022/03/26 10:57:27;;;;;;;;;;;;;;;18.63;40.06;103440.78;6213515;23;19927;-84
2022/03/26 11:00:17;;;;;;;;;;;;;;;18.64;40.35;103442.53;6183298;23;19896;-84
2022/03/26 11:05:54;;;;;;;;;;;;;;;18.61;40.46;103438.13;6183265;23;19928;-84
2022/03/26 11:12:01;;;;;;;;;;;;;;;18.62;40.44;103437.28;6183592;23;19907;-84
2022/03/26 11:14:48;;;;;;;;;;;;;;;18.62;41.44;103429.47;6246373;22;19943;-83
2022/03/26 11:20:42;;;;;;;;;;;;;;;18.64;41.03;103426.88;6305054;22;19986;-84
2022/03/26 12:26:06;;;;;;;;;;;;;;;18.61;38.89;103391.19;6286187;22;19946;31
2022/03/26 12:53:17;;;;;;;;;;;;;;;18.76;40.13;103375.06;6358431;22;19930;-82
2022/03/26 13:05:00;;;;;;;;;;;;;;;18.88;40.33;103364.97;6286335;22;20882;31
2022/03/26 13:07:26;;;;;;;;;;;;;;;18.90;40.23;103370.22;6235390;22;19922;-82
2022/03/26 13:09:54;;;;;;;;;;;;;;;18.84;40.21;103365.75;6332517;22;19925;-81
2022/03/26 13:12:22;;;;;;;;;;;;;;;18.82;40.01;103358.72;6364501;22;19911;-81
2022/03/26 13:14:49;;;;;;;;;;;;;;;18.79;38.84;103361.22;6338812;22;19899;-81
2022/03/26 13:17:14;;;;;;;;;;;;;;;18.71;38.64;103363.63;6332623;22;20319;-81
2022/03/26 13:19:45;;;;;;;;;;;;;;;18.71;37.42;103355.81;6329801;22;19910;-81
2022/03/26 13:22:15;;;;;;;;;;;;;;;18.72;38.28;103360.16;6332413;22;19906;-81
2022/03/26 13:24:51;;;;;;;;;;;;;;;18.71;38.42;103351.47;6329059;22;19914;-80
2022/03/26 13:27:18;;;;;;;;;;;;;;;18.77;38.57;103353.34;6363496;22;19921;-80
2022/03/26 13:29:43;;;;;;;;;;;;;;;18.80;38.14;103352.56;6324661;22;19966;-81
2022/03/26 13:32:12;;;;;;;;;;;;;;;18.81;38.09;103349.13;6369095;22;19937;-81
2022/03/26 13:34:40;;;;;;;;;;;;;;;18.75;37.57;103352.44;6336803;22;19907;-81
2022/03/26 13:37:09;;;;;;;;;;;;;;;18.79;38.02;103350.78;6331263;22;19912;-80
2022/03/26 13:39:35;;;;;;;;;;;;;;;18.84;38.12;103351.81;6334645;22;19907;-80
2022/03/26 13:42:11;;;;;;;;;;;;;;;18.84;38.14;103344.88;6330829;22;19913;-80
2022/03/26 13:44:37;;;;;;;;;;;;;;;18.87;38.96;103344.06;6341257;22;19891;-81
2022/03/26 13:47:03;;;;;;;;;;;;;;;18.83;37.68;103345.69;6342709;22;19917;-81
2022/03/26 13:49:32;;;;;;;;;;;;;;;18.87;38.49;103352.75;6306342;22;19966;-80
2022/03/26 13:51:58;;;;;;;;;;;;;;;18.85;38.28;103344.00;6311865;22;19911;-82
2022/03/26 13:54:32;;;;;;;;;;;;;;;18.83;37.74;103339.59;6311821;22;19914;-83
2022/03/26 13:56:59;;;;;;;;;;;;;;;18.82;38.42;103343.06;6337340;22;19918;-81
2022/03/26 13:59:25;;;;;;;;;;;;;;;18.84;37.71;103339.66;6310049;22;19891;-81
2022/03/26 14:01:51;;;;;;;;;;;;;;;18.89;39.29;103334.53;6308655;22;19907;-81
2022/03/26 14:04:26;;;;;;;;;;;;;;;18.88;38.14;103341.50;6308463;22;19948;-82
2022/03/26 14:06:52;;;;;;;;;;;;;;;18.90;38.58;103342.41;6308409;22;19911;-81
2022/03/26 14:09:24;;;;;;;;;;;;;;;18.86;37.93;103339.69;6282287;22;19911;-81
2022/03/26 14:11:50;;;;;;;;;;;;;;;18.87;38.50;103337.09;6308525;22;19907;-83
2022/03/26 14:14:15;;;;;;;;;;;;;;;18.81;38.63;103336.94;6307792;22;19911;-83
2022/03/26 14:16:41;;;;;;;;;;;;;;;18.81;39.21;103330.84;6309024;22;19946;-82
2022/03/26 14:19:06;;;;;;;;;;;;;;;18.83;38.30;103331.78;6306985;22;19914;-81
2022/03/26 14:21:32;;;;;;;;;;;;;;;18.89;38.78;103324.97;6304112;22;19906;-82
2022/03/26 14:23:57;;;;;;;;;;;;;;;18.84;38.79;103323.13;6299749;22;19907;-80
2022/03/26 14:26:23;;;;;;;;;;;;;;;18.83;38.46;103323.94;6310369;22;19922;-80
2022/03/26 14:28:48;;;;;;;;;;;;;;;18.88;38.77;103324.97;6284300;22;19911;-80
2022/03/26 14:31:13;;;;;;;;;;;;;;;18.88;38.70;103314.53;6308924;22;19891;-82
2022/03/26 14:33:39;;;;;;;;;;;;;;;18.88;39.02;103314.53;6308044;22;19907;-81
2022/03/26 14:36:04;;;;;;;;;;;;;;;18.90;38.42;103311.09;6278497;22;19937;-81
2022/03/26 14:38:30;;;;;;;;;;;;;;;18.88;38.17;103312.78;6300534;22;19907;-81
2022/03/26 14:40:55;;;;;;;;;;;;;;;18.90;38.38;103315.41;6276333;22;19911;-81
2022/03/26 14:43:20;;;;;;;;;;;;;;;18.88;39.02;103319.75;6301603;22;19981;-82
2022/03/26 14:45:46;;;;;;;;;;;;;;;18.88;39.34;103314.53;6301103;22;19913;-81
2022/03/26 14:48:11;;;;;;;;;;;;;;;18.87;38.71;103315.34;6302044;22;19914;-81
2022/03/26 14:50:37;;;;;;;;;;;;;;;18.88;39.36;103314.53;6302770;22;19922;-81
2022/03/26 14:53:02;;;;;;;;;;;;;;;18.92;38.72;103313.72;6301026;22;19934;-81
2022/03/26 14:55:28;;;;;;;;;;;;;;;18.87;38.78;103310.13;6302101;22;19950;-81
2022/03/26 14:57:56;;;;;;;;;;;;;;;18.91;39.22;103310.25;6327716;22;19928;-81
2022/03/26 15:00:23;;;;;;;;;;;;;;;18.83;39.05;103305.69;6302610;22;19907;-82
2022/03/26 15:02:48;;;;;;;;;;;;;;;18.81;39.48;103310.84;6301395;22;19907;-81
2022/03/26 15:05:14;;;;;;;;;;;;;;;18.83;39.78;103313.50;6298610;22;20156;-80
2022/03/26 15:07:39;;;;;;;;;;;;;;;18.86;39.55;103311.88;6304503;22;19919;-82
2022/03/26 15:10:06;;;;;;;;;;;;;;;18.91;40.17;103311.97;6295776;22;19910;-78
2022/03/26 15:12:32;;;;;;;;;;;;;;;18.93;40.23;103312.91;6288425;22;19914;-78
2022/03/26 15:14:57;;;;;;;;;;;;;;;18.98;39.85;103307.78;6288374;22;20323;-77
2022/03/26 15:17:22;;;;;;;;;;;;;;;18.91;39.88;103305.03;6286509;22;19929;-77
2022/03/26 15:19:48;;;;;;;;;;;;;;;18.85;39.92;103306.59;6315259;22;19906;-78
2022/03/26 15:22:13;;;;;;;;;;;;;;;18.82;40.33;103301.31;6269578;22;19895;-79
2022/03/26 15:24:38;;;;;;;;;;;;;;;18.60;40.55;103305.09;6294148;22;19906;-79
2022/03/26 15:27:04;;;;;;;;;;;;;;;18.65;40.45;103300.88;6261848;22;19915;-77
2022/03/26 15:29:29;;;;;;;;;;;;;;;18.72;40.63;103313.22;6313488;22;19907;-78